Venus Seven — H9RN — position and weather

sailwx.info

Track history (hours):
 
Tides and Currents Weather Stations Pressure Air Temp Water Temp Dewpoint Dewpoint Depression Visibility Wind Speed Wind Dir Waves Ship Positions

Venus Seven

Last reported at 2017-Jul-18 13:55 UTC. Time now 2017-Jul-23 18:44 UTC.
Position N 22°44' E 120°09'.

Length 93 m; draft 4.2 m.

Type: Cargo ship. MMSI: 353405000.

Date/timePositionNaut miles runAvg speedWind from/ knotsBaromVisibWave heightAir tempDewpointWater temp
2017-Jul-18 13:55N 22°44' E 120°09'513.2
2017-Jul-18 13:30N 22°39' E 120°12'510.8
2017-Jul-18 13:00N 22°37' E 120°17'1 0.3
2017-Jul-18 09:56N 22°36' E 120°18'0 0.1
2017-Jul-18 09:26N 22°36' E 120°18'0 0.1
2017-Jul-18 08:56N 22°36' E 120°18'0 0.0
2017-Jul-18 08:11N 22°36' E 120°18'0 0.0
2017-Jul-18 07:53N 22°36' E 120°18'0 0.0
2017-Jul-18 07:11N 22°36' E 120°18'0 0.0
2017-Jul-18 04:26N 22°36' E 120°18'0 0.0
2017-Jul-18 03:59N 22°36' E 120°18'0 0.0
2017-Jul-18 03:29N 22°36' E 120°18'0 0.0
2017-Jul-18 03:00N 22°36' E 120°18'0 0.5
2017-Jul-18 02:30N 22°36' E 120°18'4 8.5
2017-Jul-18 02:00N 22°37' E 120°13'611.7
2017-Jul-18 01:30N 22°41' E 120°09'713.5
2017-Jul-18 00:59N 22°47' E 120°05'  
2017-Jul-13 16:10N 33°60' E 134°56'311.8
2017-Jul-13 15:56N 34°02' E 134°56'612.3
2017-Jul-13 15:28N 34°08' E 134°56'611.9
2017-Jul-13 15:00N 34°14' E 134°58'610.2
2017-Jul-13 14:28N 34°19' E 134°59'510.3
2017-Jul-13 14:00N 34°24' E 135°00'611.4
2017-Jul-13 13:30N 34°29' E 135°02'510.7
2017-Jul-13 13:00N 34°34' E 135°03'4 7.5
2017-Jul-13 12:29N 34°37' E 134°60'2 0.1
2017-Jul-12 08:18N 34°37' E 135°02'3 9.0
2017-Jul-12 08:00N 34°36' E 135°04'611.7
2017-Jul-12 07:30N 34°36' E 135°11'612.2
2017-Jul-12 07:00N 34°37' E 135°19'510.4
2017-Jul-12 06:30N 34°38' E 135°25'0 0.2
2017-Jul-12 05:58N 34°38' E 135°25'0 0.0
2017-Jul-12 05:28N 34°38' E 135°25'0 0.0
2017-Jul-12 04:58N 34°38' E 135°25'0 0.0
2017-Jul-12 04:28N 34°38' E 135°25'0 0.0
2017-Jul-12 03:52N 34°38' E 135°25'0 0.0
2017-Jul-12 03:22N 34°38' E 135°25'0 0.0
2017-Jul-12 02:58N 34°38' E 135°25'0 0.0
2017-Jul-12 02:16N 34°38' E 135°25'0 0.0
2017-Jul-12 01:58N 34°38' E 135°25'0 0.0
2017-Jul-12 01:28N 34°38' E 135°25'0 0.0
2017-Jul-12 00:58N 34°38' E 135°25'0 0.0
2017-Jul-12 00:22N 34°38' E 135°25'0 0.0
2017-Jul-11 23:58N 34°38' E 135°25'0 0.0
2017-Jul-11 23:28N 34°38' E 135°25'0 0.0
2017-Jul-11 22:58N 34°38' E 135°25'0 0.0
2017-Jul-11 22:28N 34°38' E 135°25'0 0.0
2017-Jul-11 21:58N 34°38' E 135°25'0 0.0
2017-Jul-11 21:22N 34°38' E 135°25'0 0.0
2017-Jul-11 20:58N 34°38' E 135°25'0 0.0
2017-Jul-11 20:28N 34°38' E 135°25'0 0.0
2017-Jul-11 19:58N 34°38' E 135°25'0 0.0
2017-Jul-11 19:28N 34°38' E 135°25'0 0.0
2017-Jul-11 18:58N 34°38' E 135°25'0 0.0
2017-Jul-11 18:28N 34°38' E 135°25'0 0.0
2017-Jul-11 17:58N 34°38' E 135°25'0 0.0
2017-Jul-11 17:28N 34°38' E 135°25'0 0.0
2017-Jul-11 17:00N 34°38' E 135°25'0 0.0
2017-Jul-11 16:14N 34°38' E 135°25'0 0.0
2017-Jul-11 15:56N 34°38' E 135°25'0 0.0
2017-Jul-11 15:26N 34°38' E 135°25'0 0.0
2017-Jul-11 14:56N 34°38' E 135°25'0 0.0
2017-Jul-11 14:20N 34°38' E 135°25'0 0.0
2017-Jul-11 13:50N 34°38' E 135°25'0 0.0
2017-Jul-11 13:25N 34°38' E 135°25'0 0.0
2017-Jul-11 12:55N 34°38' E 135°25'0 0.0
2017-Jul-11 12:13N 34°38' E 135°25'0 0.0
2017-Jul-11 11:55N 34°38' E 135°25'0 0.0
2017-Jul-11 11:25N 34°38' E 135°25'0 0.0
2017-Jul-11 10:55N 34°38' E 135°25'0 0.0
2017-Jul-11 10:19N 34°38' E 135°25'0 0.0
2017-Jul-11 09:55N 34°38' E 135°25'0 0.0
2017-Jul-11 09:25N 34°38' E 135°25'0 0.0
2017-Jul-11 08:37N 34°38' E 135°25'0 0.0
2017-Jul-11 08:25N 34°38' E 135°25'0 0.0
2017-Jul-11 07:49N 34°38' E 135°25'0 0.0
2017-Jul-11 07:13N 34°38' E 135°25'0 0.0
2017-Jul-11 06:49N 34°38' E 135°25'0 0.0
2017-Jul-11 06:25N 34°38' E 135°25'0 0.0
2017-Jul-11 05:55N 34°38' E 135°25'0 0.0
2017-Jul-11 05:19N 34°38' E 135°25'0 0.0
2017-Jul-11 04:55N 34°38' E 135°25'0 0.0
2017-Jul-11 04:25N 34°38' E 135°25'0 0.0
2017-Jul-11 03:49N 34°38' E 135°25'0 0.0
2017-Jul-11 03:25N 34°38' E 135°25'0 0.0
2017-Jul-11 02:55N 34°38' E 135°25'0 0.0
2017-Jul-11 02:25N 34°38' E 135°25'0 0.0
2017-Jul-11 01:49N 34°38' E 135°25'0 0.0
2017-Jul-11 01:25N 34°38' E 135°25'0 0.0
2017-Jul-11 00:55N 34°38' E 135°25'0 0.0
2017-Jul-11 00:19N 34°38' E 135°25'0 0.0
2017-Jul-10 23:55N 34°38' E 135°25'0 0.0
2017-Jul-10 23:25N 34°38' E 135°25'0 0.0
2017-Jul-10 22:55N 34°38' E 135°25'0 0.0
2017-Jul-10 22:25N 34°38' E 135°25'0 0.0
2017-Jul-10 22:00N 34°38' E 135°25'2 3.8
2017-Jul-10 21:30N 34°37' E 135°23'1 2.4
2017-Jul-10 21:00N 34°37' E 135°22'0 0.0
2017-Jul-10 20:30N 34°37' E 135°22'0 0.0
2017-Jul-10 20:00N 34°37' E 135°22'0 0.1
2017-Jul-10 19:30N 34°37' E 135°22'0 0.0
2017-Jul-10 18:54N 34°37' E 135°22'0 0.0
2017-Jul-10 18:30N 34°37' E 135°22'0 0.0
2017-Jul-10 17:54N 34°37' E 135°22'0 0.0
2017-Jul-10 17:30N 34°37' E 135°22'0 0.1
2017-Jul-10 17:00N 34°37' E 135°22'0 0.0
2017-Jul-10 16:30N 34°37' E 135°22'0 0.0
2017-Jul-10 16:00N 34°37' E 135°22'0 0.0
2017-Jul-10 15:30N 34°37' E 135°22'0 0.0
2017-Jul-10 15:00N 34°37' E 135°22'1 2.1
2017-Jul-10 14:30N 34°36' E 135°20'613.0
2017-Jul-10 14:00N 34°35' E 135°13'612.8
2017-Jul-10 13:30N 34°35' E 135°05'5 9.4
2017-Jul-10 12:57N 34°37' E 134°59'  
Track history (hours):
 
Tides and Currents Weather Stations Pressure Air Temp Water Temp Dewpoint Dewpoint Depression Visibility Wind Speed Wind Dir Waves Ship Positions

Venus Seven

Last reported at 2017-Jul-18 13:55 UTC. Time now 2017-Jul-23 18:44 UTC.
Position N 22°44' E 120°09'.

Length 93 m; draft 4.2 m.

Type: Cargo ship. MMSI: 353405000.

Date/timePositionNaut miles runAvg speedWind from/ knotsBaromVisibWave heightAir tempDewpointWater temp
2017-Jul-18 13:55N 22°44' E 120°09'513.2
2017-Jul-18 13:30N 22°39' E 120°12'510.8
2017-Jul-18 13:00N 22°37' E 120°17'1 0.3
2017-Jul-18 09:56N 22°36' E 120°18'0 0.1
2017-Jul-18 09:26N 22°36' E 120°18'0 0.1
2017-Jul-18 08:56N 22°36' E 120°18'0 0.0
2017-Jul-18 08:11N 22°36' E 120°18'0 0.0
2017-Jul-18 07:53N 22°36' E 120°18'0 0.0
2017-Jul-18 07:11N 22°36' E 120°18'0 0.0
2017-Jul-18 04:26N 22°36' E 120°18'0 0.0
2017-Jul-18 03:59N 22°36' E 120°18'0 0.0
2017-Jul-18 03:29N 22°36' E 120°18'0 0.0
2017-Jul-18 03:00N 22°36' E 120°18'0 0.5
2017-Jul-18 02:30N 22°36' E 120°18'4 8.5
2017-Jul-18 02:00N 22°37' E 120°13'611.7
2017-Jul-18 01:30N 22°41' E 120°09'713.5
2017-Jul-18 00:59N 22°47' E 120°05'  
2017-Jul-13 16:10N 33°60' E 134°56'311.8
2017-Jul-13 15:56N 34°02' E 134°56'612.3
2017-Jul-13 15:28N 34°08' E 134°56'611.9
2017-Jul-13 15:00N 34°14' E 134°58'610.2
2017-Jul-13 14:28N 34°19' E 134°59'510.3
2017-Jul-13 14:00N 34°24' E 135°00'611.4
2017-Jul-13 13:30N 34°29' E 135°02'510.7
2017-Jul-13 13:00N 34°34' E 135°03'4 7.5
2017-Jul-13 12:29N 34°37' E 134°60'2 0.1
2017-Jul-12 08:18N 34°37' E 135°02'3 9.0
2017-Jul-12 08:00N 34°36' E 135°04'611.7
2017-Jul-12 07:30N 34°36' E 135°11'612.2
2017-Jul-12 07:00N 34°37' E 135°19'510.4
2017-Jul-12 06:30N 34°38' E 135°25'0 0.2
2017-Jul-12 05:58N 34°38' E 135°25'0 0.0
2017-Jul-12 05:28N 34°38' E 135°25'0 0.0
2017-Jul-12 04:58N 34°38' E 135°25'0 0.0
2017-Jul-12 04:28N 34°38' E 135°25'0 0.0
2017-Jul-12 03:52N 34°38' E 135°25'0 0.0
2017-Jul-12 03:22N 34°38' E 135°25'0 0.0
2017-Jul-12 02:58N 34°38' E 135°25'0 0.0
2017-Jul-12 02:16N 34°38' E 135°25'0 0.0
2017-Jul-12 01:58N 34°38' E 135°25'0 0.0
2017-Jul-12 01:28N 34°38' E 135°25'0 0.0
2017-Jul-12 00:58N 34°38' E 135°25'0 0.0
2017-Jul-12 00:22N 34°38' E 135°25'0 0.0
2017-Jul-11 23:58N 34°38' E 135°25'0 0.0
2017-Jul-11 23:28N 34°38' E 135°25'0 0.0
2017-Jul-11 22:58N 34°38' E 135°25'0 0.0
2017-Jul-11 22:28N 34°38' E 135°25'0 0.0
2017-Jul-11 21:58N 34°38' E 135°25'0 0.0
2017-Jul-11 21:22N 34°38' E 135°25'0 0.0
2017-Jul-11 20:58N 34°38' E 135°25'0 0.0
2017-Jul-11 20:28N 34°38' E 135°25'0 0.0
2017-Jul-11 19:58N 34°38' E 135°25'0 0.0
2017-Jul-11 19:28N 34°38' E 135°25'0 0.0
2017-Jul-11 18:58N 34°38' E 135°25'0 0.0
2017-Jul-11 18:28N 34°38' E 135°25'0 0.0
2017-Jul-11 17:58N 34°38' E 135°25'0 0.0
2017-Jul-11 17:28N 34°38' E 135°25'0 0.0
2017-Jul-11 17:00N 34°38' E 135°25'0 0.0
2017-Jul-11 16:14N 34°38' E 135°25'0 0.0
2017-Jul-11 15:56N 34°38' E 135°25'0 0.0
2017-Jul-11 15:26N 34°38' E 135°25'0 0.0
2017-Jul-11 14:56N 34°38' E 135°25'0 0.0
2017-Jul-11 14:20N 34°38' E 135°25'0 0.0
2017-Jul-11 13:50N 34°38' E 135°25'0 0.0
2017-Jul-11 13:25N 34°38' E 135°25'0 0.0
2017-Jul-11 12:55N 34°38' E 135°25'0 0.0
2017-Jul-11 12:13N 34°38' E 135°25'0 0.0
2017-Jul-11 11:55N 34°38' E 135°25'0 0.0
2017-Jul-11 11:25N 34°38' E 135°25'0 0.0
2017-Jul-11 10:55N 34°38' E 135°25'0 0.0
2017-Jul-11 10:19N 34°38' E 135°25'0 0.0
2017-Jul-11 09:55N 34°38' E 135°25'0 0.0
2017-Jul-11 09:25N 34°38' E 135°25'0 0.0
2017-Jul-11 08:37N 34°38' E 135°25'0 0.0
2017-Jul-11 08:25N 34°38' E 135°25'0 0.0
2017-Jul-11 07:49N 34°38' E 135°25'0 0.0
2017-Jul-11 07:13N 34°38' E 135°25'0 0.0
2017-Jul-11 06:49N 34°38' E 135°25'0 0.0
2017-Jul-11 06:25N 34°38' E 135°25'0 0.0
2017-Jul-11 05:55N 34°38' E 135°25'0 0.0
2017-Jul-11 05:19N 34°38' E 135°25'0 0.0
2017-Jul-11 04:55N 34°38' E 135°25'0 0.0
2017-Jul-11 04:25N 34°38' E 135°25'0 0.0
2017-Jul-11 03:49N 34°38' E 135°25'0 0.0
2017-Jul-11 03:25N 34°38' E 135°25'0 0.0
2017-Jul-11 02:55N 34°38' E 135°25'0 0.0
2017-Jul-11 02:25N 34°38' E 135°25'0 0.0
2017-Jul-11 01:49N 34°38' E 135°25'0 0.0
2017-Jul-11 01:25N 34°38' E 135°25'0 0.0
2017-Jul-11 00:55N 34°38' E 135°25'0 0.0
2017-Jul-11 00:19N 34°38' E 135°25'0 0.0
2017-Jul-10 23:55N 34°38' E 135°25'0 0.0
2017-Jul-10 23:25N 34°38' E 135°25'0 0.0
2017-Jul-10 22:55N 34°38' E 135°25'0 0.0
2017-Jul-10 22:25N 34°38' E 135°25'0 0.0
2017-Jul-10 22:00N 34°38' E 135°25'2 3.8
2017-Jul-10 21:30N 34°37' E 135°23'1 2.4
2017-Jul-10 21:00N 34°37' E 135°22'0 0.0
2017-Jul-10 20:30N 34°37' E 135°22'0 0.0
2017-Jul-10 20:00N 34°37' E 135°22'0 0.1
2017-Jul-10 19:30N 34°37' E 135°22'0 0.0
2017-Jul-10 18:54N 34°37' E 135°22'0 0.0
2017-Jul-10 18:30N 34°37' E 135°22'0 0.0
2017-Jul-10 17:54N 34°37' E 135°22'0 0.0
2017-Jul-10 17:30N 34°37' E 135°22'0 0.1
2017-Jul-10 17:00N 34°37' E 135°22'0 0.0
2017-Jul-10 16:30N 34°37' E 135°22'0 0.0
2017-Jul-10 16:00N 34°37' E 135°22'0 0.0
2017-Jul-10 15:30N 34°37' E 135°22'0 0.0
2017-Jul-10 15:00N 34°37' E 135°22'1 2.1
2017-Jul-10 14:30N 34°36' E 135°20'613.0
2017-Jul-10 14:00N 34°35' E 135°13'612.8
2017-Jul-10 13:30N 34°35' E 135°05'5 9.4
2017-Jul-10 12:57N 34°37' E 134°59'  

Dump ship's entire track history